sensor_id;sensor_type;location;lat;lon;timestamp;pressure;altitude;pressure_sealevel;temperature;humidity
71149;BME280;59072;42.144;25.200;2023-03-12T11:42:27;99627.88;;;16.57;25.48
71149;BME280;59072;42.144;25.200;2023-03-12T11:45:14;99636.34;;;15.77;26.67
71149;BME280;59072;42.144;25.200;2023-03-12T11:50:13;99637.50;;;14.91;27.71
71149;BME280;59072;42.144;25.200;2023-03-12T11:58:05;99637.19;;;15.30;27.14
71149;BME280;59072;42.144;25.200;2023-03-12T12:06:06;99634.31;;;14.94;27.35
71149;BME280;59072;42.144;25.200;2023-03-12T12:11:13;99643.16;;;15.37;27.69
71149;BME280;59072;42.144;25.200;2023-03-12T12:18:49;99640.81;;;16.70;25.76
71149;BME280;59072;42.144;25.200;2023-03-12T12:23:49;99656.13;;;16.23;25.95
71149;BME280;59072;42.144;25.200;2023-03-12T12:29:08;99654.28;;;16.60;24.94
71149;BME280;59072;42.144;25.200;2023-03-12T13:19:07;99681.34;;;17.76;21.90
71149;BME280;59072;42.144;25.200;2023-03-12T13:24:18;99681.47;;;17.35;22.41
71149;BME280;59072;42.144;25.200;2023-03-12T13:27:04;99676.31;;;18.14;21.79
71149;BME280;59072;42.144;25.200;2023-03-12T13:32:00;99672.75;;;17.64;22.15
71149;BME280;59072;42.144;25.200;2023-03-12T13:36:51;99696.31;;;18.13;22.31
71149;BME280;59072;42.144;25.200;2023-03-12T13:39:18;99689.06;;;18.48;21.15
71149;BME280;59072;42.144;25.200;2023-03-12T13:55:01;99700.28;;;19.58;20.29
71149;BME280;59072;42.144;25.200;2023-03-12T13:59:58;99702.94;;;20.50;18.19
71149;BME280;59072;42.144;25.200;2023-03-12T14:02:26;99695.44;;;21.12;18.07
71149;BME280;59072;42.144;25.200;2023-03-12T14:04:52;99710.38;;;22.39;16.91
71149;BME280;59072;42.144;25.200;2023-03-12T14:10:08;99708.97;;;22.00;17.60
71149;BME280;59072;42.144;25.200;2023-03-12T14:12:42;99709.88;;;23.67;16.99
71149;BME280;59072;42.144;25.200;2023-03-12T14:17:44;99722.59;;;24.73;15.10
71149;BME280;59072;42.144;25.200;2023-03-12T14:20:17;99713.78;;;25.41;15.39
71149;BME280;59072;42.144;25.200;2023-03-12T14:22:44;99717.88;;;25.09;16.26
71149;BME280;59072;42.144;25.200;2023-03-12T14:25:12;99722.91;;;25.92;15.04
71149;BME280;59072;42.144;25.200;2023-03-12T14:27:38;99723.69;;;26.85;14.61
71149;BME280;59072;42.144;25.200;2023-03-12T14:32:36;99725.84;;;25.78;14.78
71149;BME280;59072;42.144;25.200;2023-03-12T14:37:29;99740.22;;;25.96;14.08
71149;BME280;59072;42.144;25.200;2023-03-12T14:40:03;99736.94;;;26.54;14.35
71149;BME280;59072;42.144;25.200;2023-03-12T14:42:32;99743.09;;;25.05;14.33
71149;BME280;59072;42.144;25.200;2023-03-12T14:44:58;99740.81;;;25.16;15.76
71149;BME280;59072;42.144;25.200;2023-03-12T14:47:24;99749.03;;;24.90;14.63
71149;BME280;59072;42.144;25.200;2023-03-12T14:49:49;99740.88;;;25.55;15.94
71149;BME280;59072;42.144;25.200;2023-03-12T14:52:22;99731.47;;;25.35;15.70
71149;BME280;59072;42.144;25.200;2023-03-12T14:57:19;99741.09;;;20.10;20.47
71149;BME280;59072;42.144;25.200;2023-03-12T14:59:51;99742.84;;;20.44;20.77
71149;BME280;59072;42.144;25.200;2023-03-12T15:02:18;99739.16;;;19.09;21.97
71149;BME280;59072;42.144;25.200;2023-03-12T15:04:44;99737.06;;;19.01;21.95
71149;BME280;59072;42.144;25.200;2023-03-12T15:07:10;99749.72;;;18.66;22.72
71149;BME280;59072;42.144;25.200;2023-03-12T15:09:36;99755.44;;;19.33;22.27
71149;BME280;59072;42.144;25.200;2023-03-12T15:12:05;99765.53;;;18.88;22.51
71149;BME280;59072;42.144;25.200;2023-03-12T15:14:33;99768.31;;;18.73;22.08
71149;BME280;59072;42.144;25.200;2023-03-12T15:16:59;99766.31;;;17.84;22.92
71149;BME280;59072;42.144;25.200;2023-03-12T15:19:26;99772.75;;;17.93;23.26
71149;BME280;59072;42.144;25.200;2023-03-12T15:21:53;99772.28;;;17.55;23.52
71149;BME280;59072;42.144;25.200;2023-03-12T15:24:18;99774.09;;;17.80;23.09
71149;BME280;59072;42.144;25.200;2023-03-12T15:26:44;99778.69;;;17.90;22.88
71149;BME280;59072;42.144;25.200;2023-03-12T15:31:47;99790.25;;;16.67;24.01
71149;BME280;59072;42.144;25.200;2023-03-12T15:34:13;99793.50;;;15.96;25.04
71149;BME280;59072;42.144;25.200;2023-03-12T15:36:50;99795.38;;;15.58;25.20
71149;BME280;59072;42.144;25.200;2023-03-12T15:41:47;99802.50;;;15.75;25.24
71149;BME280;59072;42.144;25.200;2023-03-12T15:44:20;99807.34;;;15.08;25.50
71149;BME280;59072;42.144;25.200;2023-03-12T15:46:47;99807.50;;;14.47;27.29
71149;BME280;59072;42.144;25.200;2023-03-12T15:49:31;99807.50;;;13.86;27.88
71149;BME280;59072;42.144;25.200;2023-03-12T15:54:24;99819.69;;;12.52;30.00
71149;BME280;59072;42.144;25.200;2023-03-12T15:56:49;99819.91;;;12.10;30.56
71149;BME280;59072;42.144;25.200;2023-03-12T16:01:44;99828.47;;;11.41;31.49
71149;BME280;59072;42.144;25.200;2023-03-12T16:04:10;99831.81;;;11.48;32.29
71149;BME280;59072;42.144;25.200;2023-03-12T16:06:35;99840.44;;;11.38;32.54
71149;BME280;59072;42.144;25.200;2023-03-12T16:09:01;99838.81;;;11.07;33.52
71149;BME280;59072;42.144;25.200;2023-03-12T16:11:29;99848.44;;;10.96;33.82
71149;BME280;59072;42.144;25.200;2023-03-12T16:14:01;99849.75;;;11.17;33.78
71149;BME280;59072;42.144;25.200;2023-03-12T16:16:27;99856.69;;;10.76;34.25
71149;BME280;59072;42.144;25.200;2023-03-12T16:18:53;99865.31;;;10.41;35.07
71149;BME280;59072;42.144;25.200;2023-03-12T16:21:18;99874.66;;;10.51;35.01
71149;BME280;59072;42.144;25.200;2023-03-12T16:23:43;99873.16;;;9.93;35.97
71149;BME280;59072;42.144;25.200;2023-03-12T16:26:10;99883.25;;;10.09;35.96
71149;BME280;59072;42.144;25.200;2023-03-12T16:28:36;99888.38;;;10.29;36.00
71149;BME280;59072;42.144;25.200;2023-03-12T16:31:02;99899.84;;;10.36;36.14
71149;BME280;59072;42.144;25.200;2023-03-12T16:33:27;99899.75;;;10.43;36.18
71149;BME280;59072;42.144;25.200;2023-03-12T16:35:53;99899.03;;;10.11;36.07
71149;BME280;59072;42.144;25.200;2023-03-12T16:38:18;99909.97;;;10.02;36.00
71149;BME280;59072;42.144;25.200;2023-03-12T16:40:46;99923.31;;;10.21;35.64
71149;BME280;59072;42.144;25.200;2023-03-12T16:43:17;99923.88;;;10.04;35.60
71149;BME280;59072;42.144;25.200;2023-03-12T16:45:44;99927.41;;;9.98;35.85
71149;BME280;59072;42.144;25.200;2023-03-12T16:48:12;99934.88;;;9.64;36.50
71149;BME280;59072;42.144;25.200;2023-03-12T16:50:38;99945.00;;;9.81;36.03
71149;BME280;59072;42.144;25.200;2023-03-12T16:53:03;99951.41;;;9.98;36.35
71149;BME280;59072;42.144;25.200;2023-03-12T16:55:28;99957.56;;;9.67;36.91
71149;BME280;59072;42.144;25.200;2023-03-12T16:57:57;99963.06;;;9.72;36.30
71149;BME280;59072;42.144;25.200;2023-03-12T17:00:24;99975.69;;;9.83;36.32
71149;BME280;59072;42.144;25.200;2023-03-12T17:02:50;99972.31;;;9.70;36.99
71149;BME280;59072;42.144;25.200;2023-03-12T17:05:19;99981.09;;;9.38;37.30
71149;BME280;59072;42.144;25.200;2023-03-12T17:07:44;99980.53;;;9.30;37.30
71149;BME280;59072;42.144;25.200;2023-03-12T17:10:09;99981.34;;;9.30;37.25
71149;BME280;59072;42.144;25.200;2023-03-12T17:12:36;99995.41;;;9.37;37.01
71149;BME280;59072;42.144;25.200;2023-03-12T17:15:03;100001.06;;;9.09;37.30
71149;BME280;59072;42.144;25.200;2023-03-12T17:17:30;100004.03;;;9.33;37.19
71149;BME280;59072;42.144;25.200;2023-03-12T17:19:55;100012.47;;;9.23;36.81
71149;BME280;59072;42.144;25.200;2023-03-12T17:22:23;100019.03;;;9.20;37.02
71149;BME280;59072;42.144;25.200;2023-03-12T17:24:49;100025.78;;;9.30;36.60
71149;BME280;59072;42.144;25.200;2023-03-12T17:27:14;100025.84;;;9.10;36.89
71149;BME280;59072;42.144;25.200;2023-03-12T17:29:39;100032.63;;;8.92;37.45
71149;BME280;59072;42.144;25.200;2023-03-12T17:32:04;100037.47;;;9.15;36.79
71149;BME280;59072;42.144;25.200;2023-03-12T17:34:30;100051.66;;;8.96;37.29
71149;BME280;59072;42.144;25.200;2023-03-12T17:36:55;100044.28;;;8.98;37.61
71149;BME280;59072;42.144;25.200;2023-03-12T17:39:20;100057.16;;;9.01;36.96
71149;BME280;59072;42.144;25.200;2023-03-12T17:41:46;100056.13;;;9.09;37.42
71149;BME280;59072;42.144;25.200;2023-03-12T17:44:11;100060.81;;;9.13;37.41
71149;BME280;59072;42.144;25.200;2023-03-12T17:46:38;100065.38;;;8.93;38.03
71149;BME280;59072;42.144;25.200;2023-03-12T17:49:04;100070.44;;;9.14;37.73
71149;BME280;59072;42.144;25.200;2023-03-12T17:51:29;100068.59;;;9.15;38.04
71149;BME280;59072;42.144;25.200;2023-03-12T17:53:54;100083.75;;;9.01;38.27
71149;BME280;59072;42.144;25.200;2023-03-12T17:56:20;100082.78;;;8.95;39.15
71149;BME280;59072;42.144;25.200;2023-03-12T17:58:45;100086.06;;;8.77;40.22
71149;BME280;59072;42.144;25.200;2023-03-12T18:01:11;100091.56;;;8.96;39.70
71149;BME280;59072;42.144;25.200;2023-03-12T18:03:36;100088.72;;;8.77;40.51
71149;BME280;59072;42.144;25.200;2023-03-12T18:06:01;100091.97;;;8.99;39.46
71149;BME280;59072;42.144;25.200;2023-03-12T18:08:26;100101.59;;;8.94;40.07
71149;BME280;59072;42.144;25.200;2023-03-12T18:10:52;100089.50;;;9.04;39.60
71149;BME280;59072;42.144;25.200;2023-03-12T18:13:17;100099.53;;;8.96;40.31
71149;BME280;59072;42.144;25.200;2023-03-12T18:15:48;100099.31;;;9.04;39.49
71149;BME280;59072;42.144;25.200;2023-03-12T18:18:14;100112.22;;;8.94;39.87
71149;BME280;59072;42.144;25.200;2023-03-12T18:20:39;100111.19;;;8.88;41.47
71149;BME280;59072;42.144;25.200;2023-03-12T18:23:04;100121.44;;;8.84;41.21
71149;BME280;59072;42.144;25.200;2023-03-12T18:25:30;100119.59;;;8.52;42.38
71149;BME280;59072;42.144;25.200;2023-03-12T18:27:55;100121.63;;;8.50;42.26
71149;BME280;59072;42.144;25.200;2023-03-12T18:30:20;100128.00;;;8.49;42.01
71149;BME280;59072;42.144;25.200;2023-03-12T18:32:46;100127.50;;;8.25;43.48
71149;BME280;59072;42.144;25.200;2023-03-12T18:35:11;100146.72;;;8.14;43.83
71149;BME280;59072;42.144;25.200;2023-03-12T18:37:36;100154.25;;;8.03;43.83
71149;BME280;59072;42.144;25.200;2023-03-12T18:40:01;100159.75;;;7.95;44.83
71149;BME280;59072;42.144;25.200;2023-03-12T18:42:29;100151.69;;;7.75;45.09
71149;BME280;59072;42.144;25.200;2023-03-12T18:44:54;100165.13;;;8.22;44.32
71149;BME280;59072;42.144;25.200;2023-03-12T18:47:19;100161.41;;;8.16;44.51
71149;BME280;59072;42.144;25.200;2023-03-12T18:49:45;100166.75;;;8.16;43.63
71149;BME280;59072;42.144;25.200;2023-03-12T18:52:10;100171.66;;;8.26;43.94
71149;BME280;59072;42.144;25.200;2023-03-12T18:54:35;100168.28;;;8.72;42.60
71149;BME280;59072;42.144;25.200;2023-03-12T18:57:02;100176.03;;;8.54;42.97
71149;BME280;59072;42.144;25.200;2023-03-12T18:59:27;100182.41;;;8.73;43.07
71149;BME280;59072;42.144;25.200;2023-03-12T19:01:53;100185.22;;;8.51;43.45
71149;BME280;59072;42.144;25.200;2023-03-12T19:04:21;100198.16;;;8.88;43.64
71149;BME280;59072;42.144;25.200;2023-03-12T19:06:46;100194.69;;;8.94;42.53
71149;BME280;59072;42.144;25.200;2023-03-12T19:09:12;100201.41;;;9.03;42.42
71149;BME280;59072;42.144;25.200;2023-03-12T19:11:38;100209.81;;;9.00;42.95
71149;BME280;59072;42.144;25.200;2023-03-12T19:14:03;100204.88;;;8.63;44.13
71149;BME280;59072;42.144;25.200;2023-03-12T19:16:29;100207.22;;;8.25;46.90
71149;BME280;59072;42.144;25.200;2023-03-12T19:18:55;100213.59;;;8.37;46.40
71149;BME280;59072;42.144;25.200;2023-03-12T19:21:20;100213.63;;;7.89;47.33
71149;BME280;59072;42.144;25.200;2023-03-12T19:23:46;100217.09;;;7.83;46.39
71149;BME280;59072;42.144;25.200;2023-03-12T19:26:11;100216.41;;;7.39;47.33
71149;BME280;59072;42.144;25.200;2023-03-12T19:28:38;100221.34;;;7.42;47.47
71149;BME280;59072;42.144;25.200;2023-03-12T19:31:05;100224.81;;;7.43;47.44
71149;BME280;59072;42.144;25.200;2023-03-12T19:33:31;100239.44;;;7.32;48.53
71149;BME280;59072;42.144;25.200;2023-03-12T19:35:57;100234.16;;;7.39;47.65
71149;BME280;59072;42.144;25.200;2023-03-12T19:38:23;100245.25;;;7.49;47.27
71149;BME280;59072;42.144;25.200;2023-03-12T19:40:49;100244.09;;;7.58;46.86
71149;BME280;59072;42.144;25.200;2023-03-12T19:43:15;100249.03;;;7.68;46.91
71149;BME280;59072;42.144;25.200;2023-03-12T19:45:40;100246.38;;;7.68;47.28
71149;BME280;59072;42.144;25.200;2023-03-12T19:48:05;100257.13;;;7.53;47.95
71149;BME280;59072;42.144;25.200;2023-03-12T19:50:31;100251.06;;;7.66;47.91
71149;BME280;59072;42.144;25.200;2023-03-12T19:52:56;100258.84;;;7.68;47.41
71149;BME280;59072;42.144;25.200;2023-03-12T19:55:22;100261.44;;;7.89;47.12
71149;BME280;59072;42.144;25.200;2023-03-12T19:57:47;100265.13;;;7.60;48.22
71149;BME280;59072;42.144;25.200;2023-03-12T20:00:13;100267.84;;;7.67;48.27
71149;BME280;59072;42.144;25.200;2023-03-12T20:02:39;100261.81;;;7.86;47.13
71149;BME280;59072;42.144;25.200;2023-03-12T20:05:04;100264.38;;;8.08;46.74
71149;BME280;59072;42.144;25.200;2023-03-12T20:07:30;100275.84;;;8.15;46.67
71149;BME280;59072;42.144;25.200;2023-03-12T20:09:56;100277.19;;;7.97;47.07
71149;BME280;59072;42.144;25.200;2023-03-12T20:12:21;100278.94;;;8.25;47.38
71149;BME280;59072;42.144;25.200;2023-03-12T20:14:47;100288.97;;;8.23;46.63
71149;BME280;59072;42.144;25.200;2023-03-12T20:17:12;100297.97;;;8.22;46.03
71149;BME280;59072;42.144;25.200;2023-03-12T20:19:38;100295.78;;;8.39;45.66
71149;BME280;59072;42.144;25.200;2023-03-12T20:22:04;100300.81;;;8.20;46.28
71149;BME280;59072;42.144;25.200;2023-03-12T20:24:29;100301.38;;;8.09;47.46
71149;BME280;59072;42.144;25.200;2023-03-12T20:26:55;100303.19;;;8.09;46.76
71149;BME280;59072;42.144;25.200;2023-03-12T20:29:20;100296.47;;;8.13;46.01
71149;BME280;59072;42.144;25.200;2023-03-12T20:31:45;100294.50;;;7.87;46.26
71149;BME280;59072;42.144;25.200;2023-03-12T20:34:11;100295.72;;;7.84;46.18
71149;BME280;59072;42.144;25.200;2023-03-12T20:36:36;100301.88;;;7.91;46.17
71149;BME280;59072;42.144;25.200;2023-03-12T20:39:01;100299.84;;;7.93;46.62
71149;BME280;59072;42.144;25.200;2023-03-12T20:41:27;100309.84;;;7.91;46.37
71149;BME280;59072;42.144;25.200;2023-03-12T20:43:53;100310.25;;;8.30;45.62
71149;BME280;59072;42.144;25.200;2023-03-12T20:46:19;100311.00;;;8.17;45.64
71149;BME280;59072;42.144;25.200;2023-03-12T20:48:44;100310.19;;;8.16;46.11
71149;BME280;59072;42.144;25.200;2023-03-12T20:51:10;100315.00;;;7.99;47.04
71149;BME280;59072;42.144;25.200;2023-03-12T20:53:35;100322.31;;;7.91;47.26
71149;BME280;59072;42.144;25.200;2023-03-12T20:56:00;100323.44;;;7.75;47.42
71149;BME280;59072;42.144;25.200;2023-03-12T20:58:26;100323.72;;;8.21;46.32
71149;BME280;59072;42.144;25.200;2023-03-12T21:00:51;100332.03;;;8.12;46.42
71149;BME280;59072;42.144;25.200;2023-03-12T21:03:16;100331.91;;;8.27;46.11
71149;BME280;59072;42.144;25.200;2023-03-12T21:05:50;100330.78;;;8.08;46.46
71149;BME280;59072;42.144;25.200;2023-03-12T21:08:15;100336.00;;;7.94;47.30
71149;BME280;59072;42.144;25.200;2023-03-12T21:10:41;100328.91;;;8.01;47.53
71149;BME280;59072;42.144;25.200;2023-03-12T21:13:06;100337.69;;;8.02;47.12
71149;BME280;59072;42.144;25.200;2023-03-12T21:15:31;100343.88;;;8.44;45.67
71149;BME280;59072;42.144;25.200;2023-03-12T21:17:56;100338.75;;;8.42;46.46
71149;BME280;59072;42.144;25.200;2023-03-12T21:20:22;100342.22;;;8.43;47.40
71149;BME280;59072;42.144;25.200;2023-03-12T21:22:47;100353.63;;;8.37;46.78
71149;BME280;59072;42.144;25.200;2023-03-12T21:25:12;100349.81;;;8.46;46.16
71149;BME280;59072;42.144;25.200;2023-03-12T21:27:38;100346.06;;;8.40;46.59
71149;BME280;59072;42.144;25.200;2023-03-12T21:30:04;100349.44;;;8.21;48.83
71149;BME280;59072;42.144;25.200;2023-03-12T21:32:29;100356.56;;;8.49;47.54
71149;BME280;59072;42.144;25.200;2023-03-12T21:34:54;100356.16;;;8.52;48.08
71149;BME280;59072;42.144;25.200;2023-03-12T21:37:20;100354.97;;;8.61;47.21
71149;BME280;59072;42.144;25.200;2023-03-12T21:39:45;100354.13;;;8.54;47.02
71149;BME280;59072;42.144;25.200;2023-03-12T21:42:10;100353.63;;;8.37;47.65
71149;BME280;59072;42.144;25.200;2023-03-12T21:44:36;100362.72;;;8.21;48.51
71149;BME280;59072;42.144;25.200;2023-03-12T21:47:02;100354.91;;;8.48;47.45
71149;BME280;59072;42.144;25.200;2023-03-12T21:49:28;100364.84;;;8.74;47.09
71149;BME280;59072;42.144;25.200;2023-03-12T21:51:53;100365.19;;;8.57;47.64
71149;BME280;59072;42.144;25.200;2023-03-12T21:54:18;100361.53;;;8.58;47.79
71149;BME280;59072;42.144;25.200;2023-03-12T21:56:43;100360.59;;;8.38;49.11
71149;BME280;59072;42.144;25.200;2023-03-12T21:59:09;100356.56;;;8.49;49.23
71149;BME280;59072;42.144;25.200;2023-03-12T22:01:34;100365.84;;;8.31;49.10
71149;BME280;59072;42.144;25.200;2023-03-12T22:04:00;100369.53;;;8.30;49.76
71149;BME280;59072;42.144;25.200;2023-03-12T22:06:27;100364.06;;;8.38;49.16
71149;BME280;59072;42.144;25.200;2023-03-12T22:08:52;100370.13;;;8.60;48.74
71149;BME280;59072;42.144;25.200;2023-03-12T22:11:19;100360.47;;;8.53;48.78
71149;BME280;59072;42.144;25.200;2023-03-12T22:13:44;100368.31;;;8.33;49.66
71149;BME280;59072;42.144;25.200;2023-03-12T22:16:10;100366.44;;;8.27;49.59
71149;BME280;59072;42.144;25.200;2023-03-12T22:18:36;100375.06;;;8.35;49.66
71149;BME280;59072;42.144;25.200;2023-03-12T22:21:03;100366.47;;;7.98;50.68
71149;BME280;59072;42.144;25.200;2023-03-12T22:23:29;100372.84;;;7.76;51.73
71149;BME280;59072;42.144;25.200;2023-03-12T22:25:58;100371.25;;;7.81;51.76
71149;BME280;59072;42.144;25.200;2023-03-12T22:28:23;100371.16;;;7.68;52.76
71149;BME280;59072;42.144;25.200;2023-03-12T22:30:49;100369.38;;;8.03;51.12
71149;BME280;59072;42.144;25.200;2023-03-12T22:33:20;100376.81;;;8.50;49.71
71149;BME280;59072;42.144;25.200;2023-03-12T22:35:45;100384.06;;;8.34;50.55
71149;BME280;59072;42.144;25.200;2023-03-12T22:38:11;100387.84;;;8.47;49.17
71149;BME280;59072;42.144;25.200;2023-03-12T22:40:37;100389.75;;;8.66;47.96
71149;BME280;59072;42.144;25.200;2023-03-12T22:43:02;100393.78;;;8.49;48.43
71149;BME280;59072;42.144;25.200;2023-03-12T22:45:28;100390.38;;;8.68;47.58
71149;BME280;59072;42.144;25.200;2023-03-12T22:47:53;100394.22;;;8.52;47.53
71149;BME280;59072;42.144;25.200;2023-03-12T22:50:18;100394.16;;;8.45;47.41
71149;BME280;59072;42.144;25.200;2023-03-12T22:52:43;100385.34;;;8.10;48.16
71149;BME280;59072;42.144;25.200;2023-03-12T22:55:09;100397.66;;;7.61;49.92
71149;BME280;59072;42.144;25.200;2023-03-12T22:57:35;100405.34;;;8.06;49.12
71149;BME280;59072;42.144;25.200;2023-03-12T23:00:00;100397.66;;;7.61;50.17
71149;BME280;59072;42.144;25.200;2023-03-12T23:02:26;100403.97;;;7.39;50.37
71149;BME280;59072;42.144;25.200;2023-03-12T23:04:51;100406.91;;;7.44;51.08
71149;BME280;59072;42.144;25.200;2023-03-12T23:07:16;100409.09;;;7.40;51.53
71149;BME280;59072;42.144;25.200;2023-03-12T23:09:42;100407.91;;;7.64;50.74
71149;BME280;59072;42.144;25.200;2023-03-12T23:12:07;100409.44;;;8.09;49.66
71149;BME280;59072;42.144;25.200;2023-03-12T23:14:32;100408.44;;;8.10;49.04
71149;BME280;59072;42.144;25.200;2023-03-12T23:16:58;100408.13;;;8.26;49.23
71149;BME280;59072;42.144;25.200;2023-03-12T23:19:25;100413.50;;;8.04;50.20
71149;BME280;59072;42.144;25.200;2023-03-12T23:21:50;100417.66;;;7.85;50.42
71149;BME280;59072;42.144;25.200;2023-03-12T23:24:15;100423.31;;;7.54;51.93
71149;BME280;59072;42.144;25.200;2023-03-12T23:26:41;100425.84;;;7.62;51.46
71149;BME280;59072;42.144;25.200;2023-03-12T23:29:09;100416.50;;;8.23;49.43
71149;BME280;59072;42.144;25.200;2023-03-12T23:31:35;100424.84;;;8.20;48.68
71149;BME280;59072;42.144;25.200;2023-03-12T23:34:00;100420.63;;;7.76;50.08
71149;BME280;59072;42.144;25.200;2023-03-12T23:36:26;100435.84;;;7.60;51.61
71149;BME280;59072;42.144;25.200;2023-03-12T23:38:51;100425.97;;;7.33;51.55
71149;BME280;59072;42.144;25.200;2023-03-12T23:41:18;100430.28;;;7.19;53.07
71149;BME280;59072;42.144;25.200;2023-03-12T23:43:43;100439.25;;;7.54;52.69
71149;BME280;59072;42.144;25.200;2023-03-12T23:46:09;100430.22;;;7.98;50.70
71149;BME280;59072;42.144;25.200;2023-03-12T23:48:35;100437.72;;;7.67;52.13
71149;BME280;59072;42.144;25.200;2023-03-12T23:51:17;100440.13;;;7.40;54.61
71149;BME280;59072;42.144;25.200;2023-03-12T23:53:43;100424.91;;;7.49;56.07
71149;BME280;59072;42.144;25.200;2023-03-12T23:56:10;100438.00;;;7.50;54.94
71149;BME280;59072;42.144;25.200;2023-03-12T23:58:36;100437.50;;;7.25;55.38
